sensor_id;sensor_type;location;lat;lon;timestamp;P1;durP1;ratioP1;P2;durP2;ratioP2
40907;SDS011;51055;59.436;24.778;2023-04-24T00:00:44;7.45;;;3.50;;
40907;SDS011;51055;59.436;24.778;2023-04-24T00:03:12;7.82;;;3.28;;
40907;SDS011;51055;59.436;24.778;2023-04-24T00:05:40;6.78;;;3.25;;
40907;SDS011;51055;59.436;24.778;2023-04-24T00:08:08;6.80;;;3.33;;
40907;SDS011;51055;59.436;24.778;2023-04-24T00:10:36;8.25;;;3.40;;
40907;SDS011;51055;59.436;24.778;2023-04-24T00:13:03;8.68;;;3.40;;
40907;SDS011;51055;59.436;24.778;2023-04-24T00:15:31;7.53;;;3.13;;
40907;SDS011;51055;59.436;24.778;2023-04-24T00:17:59;6.25;;;2.88;;
40907;SDS011;51055;59.436;24.778;2023-04-24T00:20:28;9.10;;;3.58;;
40907;SDS011;51055;59.436;24.778;2023-04-24T00:23:02;9.55;;;3.97;;
40907;SDS011;51055;59.436;24.778;2023-04-24T00:25:30;6.82;;;3.20;;
40907;SDS011;51055;59.436;24.778;2023-04-24T00:27:58;7.45;;;3.40;;
40907;SDS011;51055;59.436;24.778;2023-04-24T00:30:25;7.57;;;3.53;;
40907;SDS011;51055;59.436;24.778;2023-04-24T00:32:53;10.40;;;3.70;;
40907;SDS011;51055;59.436;24.778;2023-04-24T00:35:21;9.88;;;3.88;;
40907;SDS011;51055;59.436;24.778;2023-04-24T00:37:49;6.78;;;3.35;;
40907;SDS011;51055;59.436;24.778;2023-04-24T00:40:17;9.38;;;3.97;;
40907;SDS011;51055;59.436;24.778;2023-04-24T00:42:44;7.10;;;3.45;;
40907;SDS011;51055;59.436;24.778;2023-04-24T00:45:12;8.60;;;3.50;;
40907;SDS011;51055;59.436;24.778;2023-04-24T00:47:40;8.02;;;3.80;;
40907;SDS011;51055;59.436;24.778;2023-04-24T00:50:10;9.00;;;3.90;;
40907;SDS011;51055;59.436;24.778;2023-04-24T00:52:38;6.57;;;3.55;;
40907;SDS011;51055;59.436;24.778;2023-04-24T00:55:08;8.63;;;3.70;;
40907;SDS011;51055;59.436;24.778;2023-04-24T00:57:37;8.15;;;3.50;;
40907;SDS011;51055;59.436;24.778;2023-04-24T01:00:05;10.35;;;3.42;;
40907;SDS011;51055;59.436;24.778;2023-04-24T01:02:39;6.65;;;3.00;;
40907;SDS011;51055;59.436;24.778;2023-04-24T01:05:12;14.15;;;3.70;;
40907;SDS011;51055;59.436;24.778;2023-04-24T01:07:41;9.52;;;3.45;;
40907;SDS011;51055;59.436;24.778;2023-04-24T01:10:13;7.88;;;3.85;;
40907;SDS011;51055;59.436;24.778;2023-04-24T01:15:09;10.30;;;3.50;;
40907;SDS011;51055;59.436;24.778;2023-04-24T01:17:37;7.13;;;3.53;;
40907;SDS011;51055;59.436;24.778;2023-04-24T01:20:06;7.38;;;3.75;;
40907;SDS011;51055;59.436;24.778;2023-04-24T01:22:35;6.53;;;3.67;;
40907;SDS011;51055;59.436;24.778;2023-04-24T01:25:03;9.25;;;3.90;;
40907;SDS011;51055;59.436;24.778;2023-04-24T01:27:32;7.43;;;3.72;;
40907;SDS011;51055;59.436;24.778;2023-04-24T01:30:00;8.32;;;3.88;;
40907;SDS011;51055;59.436;24.778;2023-04-24T01:32:29;7.80;;;3.50;;
40907;SDS011;51055;59.436;24.778;2023-04-24T01:34:57;8.57;;;3.67;;
40907;SDS011;51055;59.436;24.778;2023-04-24T01:37:25;7.85;;;3.90;;
40907;SDS011;51055;59.436;24.778;2023-04-24T01:39:56;11.63;;;4.13;;
40907;SDS011;51055;59.436;24.778;2023-04-24T01:42:24;6.82;;;3.50;;
40907;SDS011;51055;59.436;24.778;2023-04-24T01:44:52;7.33;;;3.20;;
40907;SDS011;51055;59.436;24.778;2023-04-24T01:47:21;8.77;;;3.40;;
40907;SDS011;51055;59.436;24.778;2023-04-24T01:49:49;9.80;;;3.70;;
40907;SDS011;51055;59.436;24.778;2023-04-24T01:52:17;7.75;;;3.17;;
40907;SDS011;51055;59.436;24.778;2023-04-24T01:54:45;10.43;;;4.13;;
40907;SDS011;51055;59.436;24.778;2023-04-24T01:57:13;6.85;;;3.88;;
40907;SDS011;51055;59.436;24.778;2023-04-24T01:59:41;9.30;;;4.00;;
40907;SDS011;51055;59.436;24.778;2023-04-24T02:02:10;7.50;;;3.55;;
40907;SDS011;51055;59.436;24.778;2023-04-24T02:04:38;11.25;;;3.72;;
40907;SDS011;51055;59.436;24.778;2023-04-24T02:07:06;7.55;;;3.63;;
40907;SDS011;51055;59.436;24.778;2023-04-24T02:09:34;7.93;;;3.92;;
40907;SDS011;51055;59.436;24.778;2023-04-24T02:12:02;8.23;;;3.50;;
40907;SDS011;51055;59.436;24.778;2023-04-24T02:14:29;8.98;;;3.55;;
40907;SDS011;51055;59.436;24.778;2023-04-24T02:16:57;9.30;;;3.83;;
40907;SDS011;51055;59.436;24.778;2023-04-24T02:19:25;6.97;;;3.75;;
40907;SDS011;51055;59.436;24.778;2023-04-24T02:21:53;9.48;;;3.90;;
40907;SDS011;51055;59.436;24.778;2023-04-24T02:24:20;8.27;;;4.38;;
40907;SDS011;51055;59.436;24.778;2023-04-24T02:26:48;8.93;;;3.80;;
40907;SDS011;51055;59.436;24.778;2023-04-24T02:29:16;9.07;;;3.90;;
40907;SDS011;51055;59.436;24.778;2023-04-24T02:31:43;6.65;;;3.65;;
40907;SDS011;51055;59.436;24.778;2023-04-24T02:34:11;8.05;;;3.78;;
40907;SDS011;51055;59.436;24.778;2023-04-24T02:36:39;9.65;;;3.67;;
40907;SDS011;51055;59.436;24.778;2023-04-24T02:39:06;8.90;;;4.28;;
40907;SDS011;51055;59.436;24.778;2023-04-24T02:41:34;8.32;;;4.05;;
40907;SDS011;51055;59.436;24.778;2023-04-24T02:44:01;6.95;;;3.90;;
40907;SDS011;51055;59.436;24.778;2023-04-24T02:46:29;7.40;;;3.83;;
40907;SDS011;51055;59.436;24.778;2023-04-24T02:48:58;11.52;;;4.32;;
40907;SDS011;51055;59.436;24.778;2023-04-24T02:51:26;11.23;;;4.32;;
40907;SDS011;51055;59.436;24.778;2023-04-24T02:53:53;8.27;;;4.25;;
40907;SDS011;51055;59.436;24.778;2023-04-24T02:56:21;8.48;;;3.65;;
40907;SDS011;51055;59.436;24.778;2023-04-24T02:58:49;6.05;;;3.97;;
40907;SDS011;51055;59.436;24.778;2023-04-24T03:01:17;8.27;;;4.00;;
40907;SDS011;51055;59.436;24.778;2023-04-24T03:03:45;8.07;;;3.88;;
40907;SDS011;51055;59.436;24.778;2023-04-24T03:06:12;10.52;;;3.95;;
40907;SDS011;51055;59.436;24.778;2023-04-24T03:08:41;8.87;;;4.33;;
40907;SDS011;51055;59.436;24.778;2023-04-24T03:11:08;8.80;;;3.95;;
40907;SDS011;51055;59.436;24.778;2023-04-24T03:13:36;12.05;;;4.30;;
40907;SDS011;51055;59.436;24.778;2023-04-24T03:16:04;10.82;;;3.88;;
40907;SDS011;51055;59.436;24.778;2023-04-24T03:18:33;7.97;;;3.88;;
40907;SDS011;51055;59.436;24.778;2023-04-24T03:21:01;7.05;;;3.80;;
40907;SDS011;51055;59.436;24.778;2023-04-24T03:23:28;9.10;;;3.78;;
40907;SDS011;51055;59.436;24.778;2023-04-24T03:25:56;11.32;;;4.40;;
40907;SDS011;51055;59.436;24.778;2023-04-24T03:28:24;8.43;;;3.65;;
40907;SDS011;51055;59.436;24.778;2023-04-24T03:30:52;11.63;;;4.28;;
40907;SDS011;51055;59.436;24.778;2023-04-24T03:33:23;6.50;;;3.75;;
40907;SDS011;51055;59.436;24.778;2023-04-24T03:35:50;10.48;;;4.10;;
40907;SDS011;51055;59.436;24.778;2023-04-24T03:38:18;8.63;;;4.13;;
40907;SDS011;51055;59.436;24.778;2023-04-24T03:40:46;7.30;;;3.67;;
40907;SDS011;51055;59.436;24.778;2023-04-24T03:43:13;12.02;;;4.28;;
40907;SDS011;51055;59.436;24.778;2023-04-24T03:45:41;12.18;;;3.78;;
40907;SDS011;51055;59.436;24.778;2023-04-24T03:48:09;8.20;;;3.70;;
40907;SDS011;51055;59.436;24.778;2023-04-24T03:50:37;7.65;;;4.07;;
40907;SDS011;51055;59.436;24.778;2023-04-24T03:53:05;9.47;;;3.90;;
40907;SDS011;51055;59.436;24.778;2023-04-24T03:55:33;7.25;;;3.70;;
40907;SDS011;51055;59.436;24.778;2023-04-24T03:58:01;9.82;;;3.95;;
40907;SDS011;51055;59.436;24.778;2023-04-24T04:00:28;7.30;;;3.50;;
40907;SDS011;51055;59.436;24.778;2023-04-24T04:03:00;8.93;;;3.65;;
40907;SDS011;51055;59.436;24.778;2023-04-24T04:05:28;7.60;;;3.40;;
40907;SDS011;51055;59.436;24.778;2023-04-24T04:07:55;6.80;;;3.72;;
40907;SDS011;51055;59.436;24.778;2023-04-24T04:10:23;10.48;;;3.67;;
40907;SDS011;51055;59.436;24.778;2023-04-24T04:12:51;7.43;;;3.55;;
40907;SDS011;51055;59.436;24.778;2023-04-24T04:15:18;9.35;;;3.50;;
40907;SDS011;51055;59.436;24.778;2023-04-24T04:17:46;10.63;;;3.60;;
40907;SDS011;51055;59.436;24.778;2023-04-24T04:20:17;8.38;;;4.30;;
40907;SDS011;51055;59.436;24.778;2023-04-24T04:22:44;10.63;;;4.22;;
40907;SDS011;51055;59.436;24.778;2023-04-24T04:25:12;12.38;;;3.55;;
40907;SDS011;51055;59.436;24.778;2023-04-24T04:27:40;11.47;;;3.73;;
40907;SDS011;51055;59.436;24.778;2023-04-24T04:30:08;6.65;;;3.90;;
40907;SDS011;51055;59.436;24.778;2023-04-24T04:32:37;8.77;;;4.53;;
40907;SDS011;51055;59.436;24.778;2023-04-24T04:35:05;10.00;;;4.50;;
40907;SDS011;51055;59.436;24.778;2023-04-24T04:37:33;7.80;;;4.00;;
40907;SDS011;51055;59.436;24.778;2023-04-24T04:40:02;7.53;;;3.90;;
40907;SDS011;51055;59.436;24.778;2023-04-24T04:42:39;12.25;;;4.18;;
40907;SDS011;51055;59.436;24.778;2023-04-24T04:45:08;10.25;;;4.35;;
40907;SDS011;51055;59.436;24.778;2023-04-24T04:47:39;13.15;;;4.45;;
40907;SDS011;51055;59.436;24.778;2023-04-24T04:50:07;8.57;;;4.10;;
40907;SDS011;51055;59.436;24.778;2023-04-24T04:52:36;8.63;;;4.18;;
40907;SDS011;51055;59.436;24.778;2023-04-24T04:55:04;9.32;;;4.20;;
40907;SDS011;51055;59.436;24.778;2023-04-24T04:57:32;9.07;;;3.90;;
40907;SDS011;51055;59.436;24.778;2023-04-24T05:00:00;19.92;;;5.15;;
40907;SDS011;51055;59.436;24.778;2023-04-24T05:02:28;8.77;;;4.18;;
40907;SDS011;51055;59.436;24.778;2023-04-24T05:04:56;8.13;;;4.60;;
40907;SDS011;51055;59.436;24.778;2023-04-24T05:07:24;7.38;;;4.20;;
40907;SDS011;51055;59.436;24.778;2023-04-24T05:09:51;10.85;;;4.93;;
40907;SDS011;51055;59.436;24.778;2023-04-24T05:12:20;11.07;;;4.90;;
40907;SDS011;51055;59.436;24.778;2023-04-24T05:14:48;19.50;;;5.53;;
40907;SDS011;51055;59.436;24.778;2023-04-24T05:17:17;14.88;;;5.00;;
40907;SDS011;51055;59.436;24.778;2023-04-24T05:19:46;11.95;;;4.70;;
40907;SDS011;51055;59.436;24.778;2023-04-24T05:22:16;10.20;;;4.88;;
40907;SDS011;51055;59.436;24.778;2023-04-24T05:24:45;12.40;;;4.93;;
40907;SDS011;51055;59.436;24.778;2023-04-24T05:27:14;10.52;;;5.18;;
40907;SDS011;51055;59.436;24.778;2023-04-24T05:29:42;10.82;;;5.15;;
40907;SDS011;51055;59.436;24.778;2023-04-24T05:32:12;11.57;;;5.50;;
40907;SDS011;51055;59.436;24.778;2023-04-24T05:34:40;7.82;;;4.97;;
40907;SDS011;51055;59.436;24.778;2023-04-24T05:37:08;10.02;;;5.18;;
40907;SDS011;51055;59.436;24.778;2023-04-24T05:39:37;11.38;;;5.60;;
40907;SDS011;51055;59.436;24.778;2023-04-24T05:42:06;10.75;;;5.50;;
40907;SDS011;51055;59.436;24.778;2023-04-24T05:44:33;9.18;;;5.75;;
40907;SDS011;51055;59.436;24.778;2023-04-24T05:47:02;11.33;;;6.00;;
40907;SDS011;51055;59.436;24.778;2023-04-24T05:49:29;10.18;;;5.45;;
40907;SDS011;51055;59.436;24.778;2023-04-24T05:51:57;8.32;;;5.22;;
40907;SDS011;51055;59.436;24.778;2023-04-24T05:54:25;9.90;;;5.40;;
40907;SDS011;51055;59.436;24.778;2023-04-24T05:56:53;9.63;;;6.00;;
40907;SDS011;51055;59.436;24.778;2023-04-24T05:59:22;12.35;;;5.93;;
40907;SDS011;51055;59.436;24.778;2023-04-24T06:01:50;10.75;;;5.57;;
40907;SDS011;51055;59.436;24.778;2023-04-24T06:04:18;9.13;;;5.68;;
40907;SDS011;51055;59.436;24.778;2023-04-24T06:06:46;14.17;;;5.70;;
40907;SDS011;51055;59.436;24.778;2023-04-24T06:09:18;12.75;;;6.55;;
40907;SDS011;51055;59.436;24.778;2023-04-24T06:11:45;15.50;;;6.38;;
40907;SDS011;51055;59.436;24.778;2023-04-24T06:14:13;9.60;;;5.90;;
40907;SDS011;51055;59.436;24.778;2023-04-24T06:16:41;11.45;;;6.18;;
40907;SDS011;51055;59.436;24.778;2023-04-24T06:19:09;12.10;;;6.00;;
40907;SDS011;51055;59.436;24.778;2023-04-24T06:21:37;9.05;;;5.95;;
40907;SDS011;51055;59.436;24.778;2023-04-24T06:24:05;11.88;;;5.90;;
40907;SDS011;51055;59.436;24.778;2023-04-24T06:26:33;9.88;;;5.93;;
40907;SDS011;51055;59.436;24.778;2023-04-24T06:29:00;9.73;;;5.70;;
40907;SDS011;51055;59.436;24.778;2023-04-24T06:31:27;9.52;;;5.88;;
40907;SDS011;51055;59.436;24.778;2023-04-24T06:33:55;11.02;;;5.85;;
40907;SDS011;51055;59.436;24.778;2023-04-24T06:36:23;11.52;;;7.40;;
40907;SDS011;51055;59.436;24.778;2023-04-24T06:38:50;12.93;;;7.65;;
40907;SDS011;51055;59.436;24.778;2023-04-24T06:41:18;13.20;;;7.65;;
40907;SDS011;51055;59.436;24.778;2023-04-24T06:43:47;14.57;;;7.00;;
40907;SDS011;51055;59.436;24.778;2023-04-24T06:46:15;12.77;;;6.63;;
40907;SDS011;51055;59.436;24.778;2023-04-24T06:48:44;12.35;;;7.18;;
40907;SDS011;51055;59.436;24.778;2023-04-24T06:51:12;13.15;;;8.00;;
40907;SDS011;51055;59.436;24.778;2023-04-24T06:53:39;13.32;;;7.32;;
40907;SDS011;51055;59.436;24.778;2023-04-24T06:56:07;14.73;;;7.30;;
40907;SDS011;51055;59.436;24.778;2023-04-24T06:58:35;12.13;;;6.45;;
40907;SDS011;51055;59.436;24.778;2023-04-24T07:01:02;17.23;;;7.35;;
40907;SDS011;51055;59.436;24.778;2023-04-24T07:03:30;14.00;;;6.78;;
40907;SDS011;51055;59.436;24.778;2023-04-24T07:05:58;15.02;;;7.60;;
40907;SDS011;51055;59.436;24.778;2023-04-24T07:08:26;12.98;;;7.78;;
40907;SDS011;51055;59.436;24.778;2023-04-24T07:10:54;14.68;;;8.75;;
40907;SDS011;51055;59.436;24.778;2023-04-24T07:13:22;21.35;;;9.45;;
40907;SDS011;51055;59.436;24.778;2023-04-24T07:15:50;19.27;;;10.18;;
40907;SDS011;51055;59.436;24.778;2023-04-24T07:18:20;17.75;;;10.15;;
40907;SDS011;51055;59.436;24.778;2023-04-24T07:20:49;17.23;;;9.70;;
40907;SDS011;51055;59.436;24.778;2023-04-24T07:23:17;15.07;;;9.25;;
40907;SDS011;51055;59.436;24.778;2023-04-24T07:25:46;14.27;;;9.65;;
40907;SDS011;51055;59.436;24.778;2023-04-24T07:28:14;15.30;;;10.15;;
40907;SDS011;51055;59.436;24.778;2023-04-24T07:30:41;18.33;;;10.07;;
40907;SDS011;51055;59.436;24.778;2023-04-24T07:33:09;16.02;;;10.57;;
40907;SDS011;51055;59.436;24.778;2023-04-24T07:35:40;16.48;;;11.93;;
40907;SDS011;51055;59.436;24.778;2023-04-24T07:38:08;13.93;;;10.55;;
40907;SDS011;51055;59.436;24.778;2023-04-24T07:40:35;15.57;;;10.68;;
40907;SDS011;51055;59.436;24.778;2023-04-24T07:43:03;15.52;;;11.35;;
40907;SDS011;51055;59.436;24.778;2023-04-24T07:45:30;16.20;;;11.82;;
40907;SDS011;51055;59.436;24.778;2023-04-24T07:48:00;15.18;;;10.57;;
40907;SDS011;51055;59.436;24.778;2023-04-24T07:50:28;16.23;;;12.00;;
40907;SDS011;51055;59.436;24.778;2023-04-24T07:52:56;16.83;;;11.48;;
40907;SDS011;51055;59.436;24.778;2023-04-24T07:55:23;16.90;;;11.27;;
40907;SDS011;51055;59.436;24.778;2023-04-24T07:57:54;18.35;;;11.45;;
40907;SDS011;51055;59.436;24.778;2023-04-24T08:00:22;14.75;;;10.45;;
40907;SDS011;51055;59.436;24.778;2023-04-24T08:02:50;17.83;;;10.77;;
40907;SDS011;51055;59.436;24.778;2023-04-24T08:05:18;18.88;;;10.63;;
40907;SDS011;51055;59.436;24.778;2023-04-24T08:07:46;13.40;;;10.00;;
40907;SDS011;51055;59.436;24.778;2023-04-24T08:10:16;15.57;;;10.27;;
40907;SDS011;51055;59.436;24.778;2023-04-24T08:12:44;14.73;;;10.32;;
40907;SDS011;51055;59.436;24.778;2023-04-24T08:15:12;16.27;;;10.80;;
40907;SDS011;51055;59.436;24.778;2023-04-24T08:17:39;14.20;;;10.30;;
40907;SDS011;51055;59.436;24.778;2023-04-24T08:20:08;14.10;;;9.85;;
40907;SDS011;51055;59.436;24.778;2023-04-24T08:22:41;15.95;;;10.68;;
40907;SDS011;51055;59.436;24.778;2023-04-24T08:25:10;18.98;;;10.38;;
40907;SDS011;51055;59.436;24.778;2023-04-24T08:27:38;18.42;;;9.70;;
40907;SDS011;51055;59.436;24.778;2023-04-24T08:30:06;18.27;;;10.03;;
40907;SDS011;51055;59.436;24.778;2023-04-24T08:32:35;13.43;;;9.45;;
40907;SDS011;51055;59.436;24.778;2023-04-24T08:35:03;14.93;;;9.65;;
40907;SDS011;51055;59.436;24.778;2023-04-24T08:37:32;15.85;;;9.55;;
40907;SDS011;51055;59.436;24.778;2023-04-24T08:40:01;17.65;;;9.55;;
40907;SDS011;51055;59.436;24.778;2023-04-24T08:42:38;12.98;;;8.68;;
40907;SDS011;51055;59.436;24.778;2023-04-24T08:45:07;13.07;;;8.90;;
40907;SDS011;51055;59.436;24.778;2023-04-24T08:47:35;15.82;;;9.18;;
40907;SDS011;51055;59.436;24.778;2023-04-24T08:50:06;12.35;;;8.38;;
40907;SDS011;51055;59.436;24.778;2023-04-24T08:52:36;10.93;;;8.18;;
40907;SDS011;51055;59.436;24.778;2023-04-24T08:55:04;13.23;;;9.57;;
40907;SDS011;51055;59.436;24.778;2023-04-24T09:00:00;15.27;;;9.43;;
40907;SDS011;51055;59.436;24.778;2023-04-24T09:02:29;17.25;;;8.77;;
40907;SDS011;51055;59.436;24.778;2023-04-24T09:04:58;12.30;;;8.30;;
40907;SDS011;51055;59.436;24.778;2023-04-24T09:07:26;11.20;;;7.65;;
40907;SDS011;51055;59.436;24.778;2023-04-24T09:09:56;15.60;;;8.32;;
40907;SDS011;51055;59.436;24.778;2023-04-24T09:12:24;15.48;;;8.55;;
40907;SDS011;51055;59.436;24.778;2023-04-24T09:14:52;17.10;;;8.68;;
40907;SDS011;51055;59.436;24.778;2023-04-24T09:22:17;20.42;;;10.07;;
40907;SDS011;51055;59.436;24.778;2023-04-24T09:24:45;15.82;;;9.63;;
40907;SDS011;51055;59.436;24.778;2023-04-24T09:27:12;53.28;;;40.20;;
40907;SDS011;51055;59.436;24.778;2023-04-24T09:29:54;24.25;;;11.30;;
40907;SDS011;51055;59.436;24.778;2023-04-24T09:32:23;15.73;;;8.38;;
40907;SDS011;51055;59.436;24.778;2023-04-24T09:37:36;16.50;;;8.50;;
40907;SDS011;51055;59.436;24.778;2023-04-24T09:40:08;16.15;;;8.70;;
40907;SDS011;51055;59.436;24.778;2023-04-24T09:42:44;15.07;;;7.68;;
40907;SDS011;51055;59.436;24.778;2023-04-24T09:45:36;16.90;;;7.85;;
40907;SDS011;51055;59.436;24.778;2023-04-24T09:48:08;12.82;;;6.32;;
40907;SDS011;51055;59.436;24.778;2023-04-24T09:50:38;19.67;;;6.78;;
40907;SDS011;51055;59.436;24.778;2023-04-24T09:53:05;10.15;;;4.07;;
40907;SDS011;51055;59.436;24.778;2023-04-24T09:55:42;9.63;;;3.78;;
40907;SDS011;51055;59.436;24.778;2023-04-24T09:58:13;6.90;;;3.03;;
40907;SDS011;51055;59.436;24.778;2023-04-24T10:00:40;8.25;;;3.33;;
40907;SDS011;51055;59.436;24.778;2023-04-24T10:03:08;12.77;;;3.90;;
40907;SDS011;51055;59.436;24.778;2023-04-24T10:05:36;12.65;;;4.63;;
40907;SDS011;51055;59.436;24.778;2023-04-24T10:08:06;10.82;;;4.18;;
40907;SDS011;51055;59.436;24.778;2023-04-24T10:10:38;10.10;;;4.75;;
40907;SDS011;51055;59.436;24.778;2023-04-24T10:13:11;8.23;;;3.63;;
40907;SDS011;51055;59.436;24.778;2023-04-24T10:15:40;8.43;;;2.83;;
40907;SDS011;51055;59.436;24.778;2023-04-24T10:18:09;6.85;;;3.00;;
40907;SDS011;51055;59.436;24.778;2023-04-24T10:20:39;5.50;;;2.83;;
40907;SDS011;51055;59.436;24.778;2023-04-24T10:23:07;6.38;;;2.60;;
40907;SDS011;51055;59.436;24.778;2023-04-24T10:25:35;5.90;;;2.78;;
40907;SDS011;51055;59.436;24.778;2023-04-24T10:28:06;12.90;;;4.28;;
40907;SDS011;51055;59.436;24.778;2023-04-24T10:30:37;7.38;;;2.60;;
40907;SDS011;51055;59.436;24.778;2023-04-24T10:33:07;5.70;;;2.20;;
40907;SDS011;51055;59.436;24.778;2023-04-24T10:38:09;4.90;;;2.00;;
40907;SDS011;51055;59.436;24.778;2023-04-24T10:40:39;6.20;;;2.10;;
40907;SDS011;51055;59.436;24.778;2023-04-24T10:43:08;5.85;;;2.47;;
40907;SDS011;51055;59.436;24.778;2023-04-24T10:45:38;5.68;;;2.13;;
40907;SDS011;51055;59.436;24.778;2023-04-24T10:48:07;4.87;;;2.27;;
40907;SDS011;51055;59.436;24.778;2023-04-24T10:50:44;7.60;;;2.35;;
40907;SDS011;51055;59.436;24.778;2023-04-24T10:53:19;5.63;;;2.13;;
40907;SDS011;51055;59.436;24.778;2023-04-24T10:55:51;8.05;;;2.17;;
40907;SDS011;51055;59.436;24.778;2023-04-24T10:58:37;9.60;;;2.45;;
40907;SDS011;51055;59.436;24.778;2023-04-24T11:01:28;7.30;;;2.25;;
40907;SDS011;51055;59.436;24.778;2023-04-24T11:03:58;6.68;;;2.38;;
40907;SDS011;51055;59.436;24.778;2023-04-24T11:06:31;7.03;;;2.50;;
40907;SDS011;51055;59.436;24.778;2023-04-24T11:11:35;6.97;;;2.72;;
40907;SDS011;51055;59.436;24.778;2023-04-24T11:14:06;7.57;;;2.97;;
40907;SDS011;51055;59.436;24.778;2023-04-24T11:27:20;5.85;;;2.20;;
40907;SDS011;51055;59.436;24.778;2023-04-24T11:29:58;9.65;;;2.45;;
40907;SDS011;51055;59.436;24.778;2023-04-24T11:32:34;4.85;;;2.20;;
40907;SDS011;51055;59.436;24.778;2023-04-24T11:35:20;4.30;;;1.85;;
40907;SDS011;51055;59.436;24.778;2023-04-24T11:37:54;9.82;;;2.20;;
40907;SDS011;51055;59.436;24.778;2023-04-24T11:40:25;5.28;;;2.00;;
40907;SDS011;51055;59.436;24.778;2023-04-24T11:42:53;6.82;;;2.10;;
40907;SDS011;51055;59.436;24.778;2023-04-24T11:45:25;5.90;;;2.10;;
40907;SDS011;51055;59.436;24.778;2023-04-24T11:47:54;5.13;;;2.05;;
40907;SDS011;51055;59.436;24.778;2023-04-24T11:50:25;7.05;;;2.22;;
40907;SDS011;51055;59.436;24.778;2023-04-24T11:52:58;10.70;;;2.47;;
40907;SDS011;51055;59.436;24.778;2023-04-24T11:57:56;5.90;;;2.10;;
40907;SDS011;51055;59.436;24.778;2023-04-24T12:00:27;7.57;;;2.78;;
40907;SDS011;51055;59.436;24.778;2023-04-24T12:03:05;9.02;;;2.70;;
40907;SDS011;51055;59.436;24.778;2023-04-24T12:05:33;4.72;;;1.70;;
40907;SDS011;51055;59.436;24.778;2023-04-24T12:08:02;4.80;;;1.80;;
40907;SDS011;51055;59.436;24.778;2023-04-24T12:10:30;5.28;;;2.45;;
40907;SDS011;51055;59.436;24.778;2023-04-24T12:12:59;4.40;;;2.00;;
40907;SDS011;51055;59.436;24.778;2023-04-24T12:15:27;4.95;;;2.00;;
40907;SDS011;51055;59.436;24.778;2023-04-24T12:17:56;4.67;;;2.17;;
40907;SDS011;51055;59.436;24.778;2023-04-24T12:20:28;4.80;;;1.88;;
40907;SDS011;51055;59.436;24.778;2023-04-24T12:22:58;4.15;;;2.00;;
40907;SDS011;51055;59.436;24.778;2023-04-24T12:25:28;4.53;;;2.20;;
40907;SDS011;51055;59.436;24.778;2023-04-24T12:30:34;7.75;;;2.42;;
40907;SDS011;51055;59.436;24.778;2023-04-24T12:33:07;6.15;;;2.40;;
40907;SDS011;51055;59.436;24.778;2023-04-24T12:35:35;4.63;;;2.22;;
40907;SDS011;51055;59.436;24.778;2023-04-24T12:38:07;4.18;;;2.08;;
40907;SDS011;51055;59.436;24.778;2023-04-24T12:40:40;5.32;;;2.45;;
40907;SDS011;51055;59.436;24.778;2023-04-24T12:43:15;6.63;;;2.10;;
40907;SDS011;51055;59.436;24.778;2023-04-24T12:45:44;5.88;;;2.28;;
40907;SDS011;51055;59.436;24.778;2023-04-24T12:48:12;10.20;;;3.22;;
40907;SDS011;51055;59.436;24.778;2023-04-24T12:50:43;5.93;;;2.53;;
40907;SDS011;51055;59.436;24.778;2023-04-24T12:53:14;4.97;;;2.42;;
40907;SDS011;51055;59.436;24.778;2023-04-24T12:55:43;5.78;;;2.65;;
40907;SDS011;51055;59.436;24.778;2023-04-24T12:58:12;5.85;;;2.60;;
40907;SDS011;51055;59.436;24.778;2023-04-24T13:00:40;8.93;;;5.47;;
40907;SDS011;51055;59.436;24.778;2023-04-24T13:03:11;7.75;;;4.07;;
40907;SDS011;51055;59.436;24.778;2023-04-24T13:05:39;7.68;;;4.13;;
40907;SDS011;51055;59.436;24.778;2023-04-24T13:08:07;10.30;;;5.33;;
40907;SDS011;51055;59.436;24.778;2023-04-24T13:10:35;7.30;;;4.57;;
40907;SDS011;51055;59.436;24.778;2023-04-24T13:13:02;8.63;;;4.15;;
40907;SDS011;51055;59.436;24.778;2023-04-24T13:15:30;13.43;;;7.27;;
40907;SDS011;51055;59.436;24.778;2023-04-24T13:17:58;8.07;;;5.28;;
40907;SDS011;51055;59.436;24.778;2023-04-24T13:20:26;9.15;;;4.10;;
40907;SDS011;51055;59.436;24.778;2023-04-24T13:22:54;5.85;;;3.38;;
40907;SDS011;51055;59.436;24.778;2023-04-24T13:25:21;7.75;;;4.00;;
40907;SDS011;51055;59.436;24.778;2023-04-24T13:30:19;5.95;;;3.63;;
40907;SDS011;51055;59.436;24.778;2023-04-24T13:32:47;7.30;;;3.95;;
40907;SDS011;51055;59.436;24.778;2023-04-24T13:35:15;7.45;;;4.70;;
40907;SDS011;51055;59.436;24.778;2023-04-24T13:37:42;6.75;;;4.07;;
40907;SDS011;51055;59.436;24.778;2023-04-24T13:40:10;9.18;;;4.78;;
40907;SDS011;51055;59.436;24.778;2023-04-24T13:42:39;9.73;;;3.90;;
40907;SDS011;51055;59.436;24.778;2023-04-24T13:45:07;13.07;;;9.00;;
40907;SDS011;51055;59.436;24.778;2023-04-24T13:47:50;8.93;;;5.85;;
40907;SDS011;51055;59.436;24.778;2023-04-24T13:50:19;10.38;;;6.22;;
40907;SDS011;51055;59.436;24.778;2023-04-24T13:52:47;10.15;;;7.97;;
40907;SDS011;51055;59.436;24.778;2023-04-24T13:55:15;8.07;;;4.53;;
40907;SDS011;51055;59.436;24.778;2023-04-24T13:57:43;5.95;;;3.65;;
40907;SDS011;51055;59.436;24.778;2023-04-24T14:00:11;5.60;;;2.95;;
40907;SDS011;51055;59.436;24.778;2023-04-24T14:02:40;4.50;;;2.20;;
40907;SDS011;51055;59.436;24.778;2023-04-24T14:05:08;7.83;;;4.80;;
40907;SDS011;51055;59.436;24.778;2023-04-24T14:07:38;5.93;;;2.35;;
40907;SDS011;51055;59.436;24.778;2023-04-24T14:10:06;5.97;;;1.92;;
40907;SDS011;51055;59.436;24.778;2023-04-24T14:12:34;6.35;;;3.42;;
40907;SDS011;51055;59.436;24.778;2023-04-24T14:15:01;6.72;;;4.05;;
40907;SDS011;51055;59.436;24.778;2023-04-24T14:17:29;7.27;;;4.27;;
40907;SDS011;51055;59.436;24.778;2023-04-24T14:19:59;9.65;;;2.53;;
40907;SDS011;51055;59.436;24.778;2023-04-24T14:22:27;7.25;;;3.28;;
40907;SDS011;51055;59.436;24.778;2023-04-24T14:24:55;6.13;;;3.60;;
40907;SDS011;51055;59.436;24.778;2023-04-24T14:27:24;12.70;;;7.90;;
40907;SDS011;51055;59.436;24.778;2023-04-24T14:29:53;6.72;;;4.68;;
40907;SDS011;51055;59.436;24.778;2023-04-24T14:32:21;5.53;;;2.95;;
40907;SDS011;51055;59.436;24.778;2023-04-24T14:34:48;6.95;;;2.85;;
40907;SDS011;51055;59.436;24.778;2023-04-24T14:37:16;6.40;;;5.10;;
40907;SDS011;51055;59.436;24.778;2023-04-24T14:39:45;8.60;;;4.85;;
40907;SDS011;51055;59.436;24.778;2023-04-24T14:42:27;6.65;;;4.28;;
40907;SDS011;51055;59.436;24.778;2023-04-24T14:44:56;7.75;;;4.90;;
40907;SDS011;51055;59.436;24.778;2023-04-24T14:47:23;12.82;;;4.07;;
40907;SDS011;51055;59.436;24.778;2023-04-24T14:49:52;6.72;;;3.65;;
40907;SDS011;51055;59.436;24.778;2023-04-24T14:52:19;11.40;;;3.22;;
40907;SDS011;51055;59.436;24.778;2023-04-24T14:54:48;3.43;;;1.93;;
40907;SDS011;51055;59.436;24.778;2023-04-24T14:57:15;5.30;;;2.30;;
40907;SDS011;51055;59.436;24.778;2023-04-24T14:59:43;8.00;;;2.22;;
40907;SDS011;51055;59.436;24.778;2023-04-24T15:02:11;5.18;;;1.95;;
40907;SDS011;51055;59.436;24.778;2023-04-24T15:04:43;4.35;;;1.88;;
40907;SDS011;51055;59.436;24.778;2023-04-24T15:07:11;4.00;;;1.95;;
40907;SDS011;51055;59.436;24.778;2023-04-24T15:09:39;3.25;;;1.95;;
40907;SDS011;51055;59.436;24.778;2023-04-24T15:12:07;4.13;;;1.70;;
40907;SDS011;51055;59.436;24.778;2023-04-24T15:14:35;4.60;;;1.58;;